sensor_id;sensor_type;location;lat;lon;timestamp;P1;durP1;ratioP1;P2;durP2;ratioP2
39208;SDS011;24929;51.982;4.664;2022-09-29T00:01:02;4.55;;;4.15;;
39208;SDS011;24929;51.982;4.664;2022-09-29T00:03:28;12.07;;;4.25;;
39208;SDS011;24929;51.982;4.664;2022-09-29T00:05:54;4.68;;;4.18;;
39208;SDS011;24929;51.982;4.664;2022-09-29T00:08:21;5.50;;;4.20;;
39208;SDS011;24929;51.982;4.664;2022-09-29T00:10:47;5.10;;;4.05;;
39208;SDS011;24929;51.982;4.664;2022-09-29T00:13:13;13.32;;;4.43;;
39208;SDS011;24929;51.982;4.664;2022-09-29T00:15:39;4.68;;;4.15;;
39208;SDS011;24929;51.982;4.664;2022-09-29T00:18:05;5.55;;;4.45;;
39208;SDS011;24929;51.982;4.664;2022-09-29T00:20:33;5.40;;;4.80;;
39208;SDS011;24929;51.982;4.664;2022-09-29T00:22:58;6.43;;;3.95;;
39208;SDS011;24929;51.982;4.664;2022-09-29T00:25:24;5.40;;;3.60;;
39208;SDS011;24929;51.982;4.664;2022-09-29T00:27:49;5.65;;;4.28;;
39208;SDS011;24929;51.982;4.664;2022-09-29T00:30:14;5.20;;;4.07;;
39208;SDS011;24929;51.982;4.664;2022-09-29T00:32:40;4.50;;;3.88;;
39208;SDS011;24929;51.982;4.664;2022-09-29T00:35:05;8.88;;;4.43;;
39208;SDS011;24929;51.982;4.664;2022-09-29T00:37:32;4.13;;;3.72;;
39208;SDS011;24929;51.982;4.664;2022-09-29T00:39:58;5.05;;;4.28;;
39208;SDS011;24929;51.982;4.664;2022-09-29T00:42:23;4.72;;;4.22;;
39208;SDS011;24929;51.982;4.664;2022-09-29T00:47:52;4.05;;;3.65;;
39208;SDS011;24929;51.982;4.664;2022-09-29T00:50:31;4.40;;;4.00;;
39208;SDS011;24929;51.982;4.664;2022-09-29T00:53:06;4.15;;;3.75;;
39208;SDS011;24929;51.982;4.664;2022-09-29T00:55:41;4.50;;;4.00;;
39208;SDS011;24929;51.982;4.664;2022-09-29T01:00:47;10.60;;;3.92;;
39208;SDS011;24929;51.982;4.664;2022-09-29T01:03:14;5.10;;;3.88;;
39208;SDS011;24929;51.982;4.664;2022-09-29T01:05:51;4.95;;;4.35;;
39208;SDS011;24929;51.982;4.664;2022-09-29T01:08:29;5.90;;;4.22;;
39208;SDS011;24929;51.982;4.664;2022-09-29T01:11:00;3.80;;;3.40;;
39208;SDS011;24929;51.982;4.664;2022-09-29T01:13:27;4.07;;;3.72;;
39208;SDS011;24929;51.982;4.664;2022-09-29T01:15:53;10.20;;;4.18;;
39208;SDS011;24929;51.982;4.664;2022-09-29T01:18:18;9.23;;;4.20;;
39208;SDS011;24929;51.982;4.664;2022-09-29T01:20:56;6.85;;;5.43;;
39208;SDS011;24929;51.982;4.664;2022-09-29T01:26:02;12.27;;;10.43;;
39208;SDS011;24929;51.982;4.664;2022-09-29T01:42:20;22.52;;;17.67;;
39208;SDS011;24929;51.982;4.664;2022-09-29T01:47:22;21.48;;;16.98;;
39208;SDS011;24929;51.982;4.664;2022-09-29T01:49:54;28.77;;;19.48;;
39208;SDS011;24929;51.982;4.664;2022-09-29T01:52:25;12.23;;;10.93;;
39208;SDS011;24929;51.982;4.664;2022-09-29T01:54:54;8.93;;;7.00;;
39208;SDS011;24929;51.982;4.664;2022-09-29T01:57:26;10.65;;;6.57;;
39208;SDS011;24929;51.982;4.664;2022-09-29T02:00:01;9.95;;;5.78;;
39208;SDS011;24929;51.982;4.664;2022-09-29T02:05:07;40.08;;;5.22;;
39208;SDS011;24929;51.982;4.664;2022-09-29T02:07:54;24.58;;;4.97;;
39208;SDS011;24929;51.982;4.664;2022-09-29T02:10:25;49.00;;;5.68;;
39208;SDS011;24929;51.982;4.664;2022-09-29T02:12:56;20.23;;;4.22;;
39208;SDS011;24929;51.982;4.664;2022-09-29T02:15:27;22.65;;;4.93;;
39208;SDS011;24929;51.982;4.664;2022-09-29T02:17:58;33.75;;;4.82;;
39208;SDS011;24929;51.982;4.664;2022-09-29T02:20:31;4.57;;;4.18;;
39208;SDS011;24929;51.982;4.664;2022-09-29T02:22:57;21.80;;;4.68;;
39208;SDS011;24929;51.982;4.664;2022-09-29T02:25:22;8.48;;;5.13;;
39208;SDS011;24929;51.982;4.664;2022-09-29T02:27:48;7.75;;;5.35;;
39208;SDS011;24929;51.982;4.664;2022-09-29T02:30:15;8.20;;;5.72;;
39208;SDS011;24929;51.982;4.664;2022-09-29T02:32:41;7.75;;;6.03;;
39208;SDS011;24929;51.982;4.664;2022-09-29T02:35:07;7.25;;;5.63;;
39208;SDS011;24929;51.982;4.664;2022-09-29T02:57:16;7.97;;;5.72;;
39208;SDS011;24929;51.982;4.664;2022-09-29T03:02:37;20.10;;;5.70;;
39208;SDS011;24929;51.982;4.664;2022-09-29T03:05:05;23.17;;;5.78;;
39208;SDS011;24929;51.982;4.664;2022-09-29T03:07:33;24.40;;;5.47;;
39208;SDS011;24929;51.982;4.664;2022-09-29T03:10:01;15.25;;;5.03;;
39208;SDS011;24929;51.982;4.664;2022-09-29T03:12:26;28.40;;;4.80;;
39208;SDS011;24929;51.982;4.664;2022-09-29T03:14:52;28.67;;;5.13;;
39208;SDS011;24929;51.982;4.664;2022-09-29T03:17:18;46.13;;;5.88;;
39208;SDS011;24929;51.982;4.664;2022-09-29T03:19:43;8.38;;;6.20;;
39208;SDS011;24929;51.982;4.664;2022-09-29T03:22:08;12.02;;;6.65;;
39208;SDS011;24929;51.982;4.664;2022-09-29T03:24:34;18.90;;;5.70;;
39208;SDS011;24929;51.982;4.664;2022-09-29T03:27:00;16.25;;;7.97;;
39208;SDS011;24929;51.982;4.664;2022-09-29T03:29:25;6.40;;;5.80;;
39208;SDS011;24929;51.982;4.664;2022-09-29T03:31:50;17.73;;;6.70;;
39208;SDS011;24929;51.982;4.664;2022-09-29T03:34:16;12.88;;;6.57;;
39208;SDS011;24929;51.982;4.664;2022-09-29T03:36:41;12.27;;;7.05;;
39208;SDS011;24929;51.982;4.664;2022-09-29T03:39:07;16.45;;;7.18;;
39208;SDS011;24929;51.982;4.664;2022-09-29T03:41:32;10.57;;;6.95;;
39208;SDS011;24929;51.982;4.664;2022-09-29T03:43:58;17.65;;;7.75;;
39208;SDS011;24929;51.982;4.664;2022-09-29T03:46:23;8.32;;;7.32;;
39208;SDS011;24929;51.982;4.664;2022-09-29T03:48:49;9.85;;;7.60;;
39208;SDS011;24929;51.982;4.664;2022-09-29T03:51:15;11.90;;;8.00;;
39208;SDS011;24929;51.982;4.664;2022-09-29T03:53:40;9.43;;;7.47;;
39208;SDS011;24929;51.982;4.664;2022-09-29T03:56:05;8.00;;;7.20;;
39208;SDS011;24929;51.982;4.664;2022-09-29T03:58:32;9.75;;;8.45;;
39208;SDS011;24929;51.982;4.664;2022-09-29T04:00:58;9.77;;;7.80;;
39208;SDS011;24929;51.982;4.664;2022-09-29T04:03:26;8.45;;;7.40;;
39208;SDS011;24929;51.982;4.664;2022-09-29T04:05:52;10.35;;;7.45;;
39208;SDS011;24929;51.982;4.664;2022-09-29T04:08:17;9.50;;;6.93;;
39208;SDS011;24929;51.982;4.664;2022-09-29T04:10:44;10.90;;;7.03;;
39208;SDS011;24929;51.982;4.664;2022-09-29T04:13:11;11.38;;;7.57;;
39208;SDS011;24929;51.982;4.664;2022-09-29T04:15:36;12.63;;;8.52;;
39208;SDS011;24929;51.982;4.664;2022-09-29T04:18:02;14.65;;;9.32;;
39208;SDS011;24929;51.982;4.664;2022-09-29T04:20:27;10.55;;;9.00;;
39208;SDS011;24929;51.982;4.664;2022-09-29T04:22:53;12.52;;;8.45;;
39208;SDS011;24929;51.982;4.664;2022-09-29T04:25:18;12.60;;;8.43;;
39208;SDS011;24929;51.982;4.664;2022-09-29T04:27:44;10.05;;;8.35;;
39208;SDS011;24929;51.982;4.664;2022-09-29T04:30:09;11.30;;;7.72;;
39208;SDS011;24929;51.982;4.664;2022-09-29T04:32:35;8.63;;;7.75;;
39208;SDS011;24929;51.982;4.664;2022-09-29T04:35:01;10.68;;;7.60;;
39208;SDS011;24929;51.982;4.664;2022-09-29T04:37:27;16.23;;;7.88;;
39208;SDS011;24929;51.982;4.664;2022-09-29T04:39:52;10.23;;;7.95;;
39208;SDS011;24929;51.982;4.664;2022-09-29T04:42:18;13.93;;;7.97;;
39208;SDS011;24929;51.982;4.664;2022-09-29T04:44:44;9.05;;;8.07;;
39208;SDS011;24929;51.982;4.664;2022-09-29T04:47:10;9.48;;;7.82;;
39208;SDS011;24929;51.982;4.664;2022-09-29T04:49:35;12.30;;;8.13;;
39208;SDS011;24929;51.982;4.664;2022-09-29T04:52:01;10.40;;;8.35;;
39208;SDS011;24929;51.982;4.664;2022-09-29T04:54:30;11.45;;;8.27;;
39208;SDS011;24929;51.982;4.664;2022-09-29T04:56:56;27.67;;;8.35;;
39208;SDS011;24929;51.982;4.664;2022-09-29T04:59:22;17.38;;;6.95;;
39208;SDS011;24929;51.982;4.664;2022-09-29T05:01:47;17.35;;;7.32;;
39208;SDS011;24929;51.982;4.664;2022-09-29T05:04:13;28.23;;;6.20;;
39208;SDS011;24929;51.982;4.664;2022-09-29T05:06:38;26.10;;;6.40;;
39208;SDS011;24929;51.982;4.664;2022-09-29T05:09:04;44.92;;;7.03;;
39208;SDS011;24929;51.982;4.664;2022-09-29T05:11:30;35.25;;;6.50;;
39208;SDS011;24929;51.982;4.664;2022-09-29T05:13:56;22.33;;;6.38;;
39208;SDS011;24929;51.982;4.664;2022-09-29T05:16:21;9.43;;;5.30;;
39208;SDS011;24929;51.982;4.664;2022-09-29T05:18:47;11.63;;;5.88;;
39208;SDS011;24929;51.982;4.664;2022-09-29T05:21:12;35.83;;;7.90;;
39208;SDS011;24929;51.982;4.664;2022-09-29T05:23:38;15.88;;;5.03;;
39208;SDS011;24929;51.982;4.664;2022-09-29T05:26:04;6.32;;;5.72;;
39208;SDS011;24929;51.982;4.664;2022-09-29T05:28:31;7.22;;;4.80;;
39208;SDS011;24929;51.982;4.664;2022-09-29T05:31:03;31.73;;;6.75;;
39208;SDS011;24929;51.982;4.664;2022-09-29T05:33:31;16.63;;;5.13;;
39208;SDS011;24929;51.982;4.664;2022-09-29T05:35:57;7.15;;;5.30;;
39208;SDS011;24929;51.982;4.664;2022-09-29T05:38:23;17.08;;;5.95;;
39208;SDS011;24929;51.982;4.664;2022-09-29T05:40:49;45.35;;;7.57;;
39208;SDS011;24929;51.982;4.664;2022-09-29T05:43:15;49.90;;;6.05;;
39208;SDS011;24929;51.982;4.664;2022-09-29T05:45:40;34.67;;;6.70;;
39208;SDS011;24929;51.982;4.664;2022-09-29T05:48:06;23.73;;;6.22;;
39208;SDS011;24929;51.982;4.664;2022-09-29T05:50:32;10.40;;;6.50;;
39208;SDS011;24929;51.982;4.664;2022-09-29T05:53:05;19.75;;;6.60;;
39208;SDS011;24929;51.982;4.664;2022-09-29T05:55:35;10.05;;;6.28;;
39208;SDS011;24929;51.982;4.664;2022-09-29T05:58:01;24.85;;;6.07;;
39208;SDS011;24929;51.982;4.664;2022-09-29T06:00:27;28.55;;;5.57;;
39208;SDS011;24929;51.982;4.664;2022-09-29T06:02:56;22.45;;;5.90;;
39208;SDS011;24929;51.982;4.664;2022-09-29T06:05:25;10.70;;;5.80;;
39208;SDS011;24929;51.982;4.664;2022-09-29T06:07:52;10.18;;;5.93;;
39208;SDS011;24929;51.982;4.664;2022-09-29T06:10:18;5.38;;;4.88;;
39208;SDS011;24929;51.982;4.664;2022-09-29T06:12:43;7.50;;;6.38;;
39208;SDS011;24929;51.982;4.664;2022-09-29T06:15:09;7.50;;;6.43;;
39208;SDS011;24929;51.982;4.664;2022-09-29T06:17:35;6.00;;;5.32;;
39208;SDS011;24929;51.982;4.664;2022-09-29T06:20:01;6.22;;;5.05;;
39208;SDS011;24929;51.982;4.664;2022-09-29T06:22:26;34.38;;;7.30;;
39208;SDS011;24929;51.982;4.664;2022-09-29T06:24:52;25.27;;;5.30;;
39208;SDS011;24929;51.982;4.664;2022-09-29T06:27:18;19.60;;;5.80;;
39208;SDS011;24929;51.982;4.664;2022-09-29T06:29:43;12.88;;;5.53;;
39208;SDS011;24929;51.982;4.664;2022-09-29T06:32:09;13.52;;;5.90;;
39208;SDS011;24929;51.982;4.664;2022-09-29T06:34:34;6.25;;;5.65;;
39208;SDS011;24929;51.982;4.664;2022-09-29T06:37:19;6.95;;;5.72;;
39208;SDS011;24929;51.982;4.664;2022-09-29T06:40:01;10.75;;;4.93;;
39208;SDS011;24929;51.982;4.664;2022-09-29T06:42:28;10.68;;;5.55;;
39208;SDS011;24929;51.982;4.664;2022-09-29T06:44:54;5.80;;;5.30;;
39208;SDS011;24929;51.982;4.664;2022-09-29T06:47:19;14.68;;;5.15;;
39208;SDS011;24929;51.982;4.664;2022-09-29T06:49:45;5.93;;;5.32;;
39208;SDS011;24929;51.982;4.664;2022-09-29T06:52:10;8.18;;;6.43;;
39208;SDS011;24929;51.982;4.664;2022-09-29T06:54:36;6.70;;;6.00;;
39208;SDS011;24929;51.982;4.664;2022-09-29T06:57:01;6.85;;;6.25;;
39208;SDS011;24929;51.982;4.664;2022-09-29T06:59:26;6.93;;;6.22;;
39208;SDS011;24929;51.982;4.664;2022-09-29T07:01:52;7.63;;;6.82;;
39208;SDS011;24929;51.982;4.664;2022-09-29T07:04:18;8.35;;;6.47;;
39208;SDS011;24929;51.982;4.664;2022-09-29T07:06:44;7.60;;;6.78;;
39208;SDS011;24929;51.982;4.664;2022-09-29T07:09:10;8.88;;;6.93;;
39208;SDS011;24929;51.982;4.664;2022-09-29T07:11:40;33.05;;;7.07;;
39208;SDS011;24929;51.982;4.664;2022-09-29T07:14:10;8.65;;;6.90;;
39208;SDS011;24929;51.982;4.664;2022-09-29T07:16:49;9.00;;;8.13;;
39208;SDS011;24929;51.982;4.664;2022-09-29T07:19:15;9.18;;;8.27;;
39208;SDS011;24929;51.982;4.664;2022-09-29T07:21:42;10.48;;;7.55;;
39208;SDS011;24929;51.982;4.664;2022-09-29T07:24:08;9.40;;;7.32;;
39208;SDS011;24929;51.982;4.664;2022-09-29T07:26:34;8.25;;;7.45;;
39208;SDS011;24929;51.982;4.664;2022-09-29T07:29:00;7.88;;;6.50;;
39208;SDS011;24929;51.982;4.664;2022-09-29T07:31:25;8.82;;;7.88;;
39208;SDS011;24929;51.982;4.664;2022-09-29T07:33:51;10.93;;;7.20;;
39208;SDS011;24929;51.982;4.664;2022-09-29T07:36:17;6.97;;;6.28;;
39208;SDS011;24929;51.982;4.664;2022-09-29T07:38:45;5.57;;;5.07;;
39208;SDS011;24929;51.982;4.664;2022-09-29T07:41:11;6.82;;;6.00;;
39208;SDS011;24929;51.982;4.664;2022-09-29T07:43:37;6.80;;;5.55;;
39208;SDS011;24929;51.982;4.664;2022-09-29T07:46:04;5.00;;;4.50;;
39208;SDS011;24929;51.982;4.664;2022-09-29T07:48:31;6.80;;;5.65;;
39208;SDS011;24929;51.982;4.664;2022-09-29T07:51:11;5.88;;;5.07;;
39208;SDS011;24929;51.982;4.664;2022-09-29T07:53:38;5.50;;;4.95;;
39208;SDS011;24929;51.982;4.664;2022-09-29T07:56:07;7.22;;;6.05;;
39208;SDS011;24929;51.982;4.664;2022-09-29T07:58:37;6.95;;;6.03;;
39208;SDS011;24929;51.982;4.664;2022-09-29T08:01:04;6.90;;;6.20;;
39208;SDS011;24929;51.982;4.664;2022-09-29T08:03:34;8.73;;;6.72;;
39208;SDS011;24929;51.982;4.664;2022-09-29T08:06:00;7.78;;;6.60;;
39208;SDS011;24929;51.982;4.664;2022-09-29T08:08:26;8.90;;;7.30;;
39208;SDS011;24929;51.982;4.664;2022-09-29T08:10:51;7.32;;;6.00;;
39208;SDS011;24929;51.982;4.664;2022-09-29T08:13:24;9.40;;;7.05;;
39208;SDS011;24929;51.982;4.664;2022-09-29T08:15:55;8.77;;;7.40;;
39208;SDS011;24929;51.982;4.664;2022-09-29T08:18:22;11.20;;;8.40;;
39208;SDS011;24929;51.982;4.664;2022-09-29T08:20:47;9.32;;;8.30;;
39208;SDS011;24929;51.982;4.664;2022-09-29T08:23:12;9.00;;;8.20;;
39208;SDS011;24929;51.982;4.664;2022-09-29T08:25:40;10.38;;;8.80;;
39208;SDS011;24929;51.982;4.664;2022-09-29T08:28:07;10.52;;;9.02;;
39208;SDS011;24929;51.982;4.664;2022-09-29T08:30:35;10.73;;;9.15;;
39208;SDS011;24929;51.982;4.664;2022-09-29T08:33:00;13.10;;;9.75;;
39208;SDS011;24929;51.982;4.664;2022-09-29T08:35:26;11.15;;;10.10;;
39208;SDS011;24929;51.982;4.664;2022-09-29T08:37:52;11.55;;;10.07;;
39208;SDS011;24929;51.982;4.664;2022-09-29T08:40:19;9.93;;;8.50;;
39208;SDS011;24929;51.982;4.664;2022-09-29T08:45:32;9.65;;;8.15;;
39208;SDS011;24929;51.982;4.664;2022-09-29T08:48:04;8.80;;;7.90;;
39208;SDS011;24929;51.982;4.664;2022-09-29T08:50:41;9.48;;;8.50;;
39208;SDS011;24929;51.982;4.664;2022-09-29T08:53:13;9.75;;;7.93;;
39208;SDS011;24929;51.982;4.664;2022-09-29T08:55:46;8.27;;;7.50;;
39208;SDS011;24929;51.982;4.664;2022-09-29T08:58:16;9.30;;;8.02;;
39208;SDS011;24929;51.982;4.664;2022-09-29T09:01:29;8.50;;;7.70;;
39208;SDS011;24929;51.982;4.664;2022-09-29T09:09:16;9.73;;;6.88;;
39208;SDS011;24929;51.982;4.664;2022-09-29T09:21:05;8.23;;;7.35;;
39208;SDS011;24929;51.982;4.664;2022-09-29T09:25:58;8.30;;;7.22;;
39208;SDS011;24929;51.982;4.664;2022-09-29T09:28:29;8.27;;;6.97;;
39208;SDS011;24929;51.982;4.664;2022-09-29T09:30:56;7.45;;;6.75;;
39208;SDS011;24929;51.982;4.664;2022-09-29T09:36:22;6.97;;;6.32;;
39208;SDS011;24929;51.982;4.664;2022-09-29T09:38:54;7.10;;;6.45;;
39208;SDS011;24929;51.982;4.664;2022-09-29T09:41:27;6.10;;;5.50;;
39208;SDS011;24929;51.982;4.664;2022-09-29T09:44:02;7.03;;;5.78;;
39208;SDS011;24929;51.982;4.664;2022-09-29T09:46:43;6.15;;;5.60;;
39208;SDS011;24929;51.982;4.664;2022-09-29T09:49:13;6.88;;;5.80;;
39208;SDS011;24929;51.982;4.664;2022-09-29T10:04:23;7.05;;;5.18;;
39208;SDS011;24929;51.982;4.664;2022-09-29T10:06:50;5.90;;;5.30;;
39208;SDS011;24929;51.982;4.664;2022-09-29T10:09:17;4.60;;;4.13;;
39208;SDS011;24929;51.982;4.664;2022-09-29T10:11:44;4.70;;;4.28;;
39208;SDS011;24929;51.982;4.664;2022-09-29T10:14:14;3.83;;;3.53;;
39208;SDS011;24929;51.982;4.664;2022-09-29T10:16:54;3.53;;;3.05;;
39208;SDS011;24929;51.982;4.664;2022-09-29T10:22:25;4.55;;;4.15;;
39208;SDS011;24929;51.982;4.664;2022-09-29T10:24:53;5.90;;;4.47;;
39208;SDS011;24929;51.982;4.664;2022-09-29T10:27:40;3.97;;;3.33;;
39208;SDS011;24929;51.982;4.664;2022-09-29T10:30:24;4.40;;;4.00;;
39208;SDS011;24929;51.982;4.664;2022-09-29T10:32:58;4.55;;;3.08;;
39208;SDS011;24929;51.982;4.664;2022-09-29T10:35:37;4.70;;;3.03;;
39208;SDS011;24929;51.982;4.664;2022-09-29T10:38:15;4.35;;;3.55;;
39208;SDS011;24929;51.982;4.664;2022-09-29T10:43:26;3.13;;;2.83;;
39208;SDS011;24929;51.982;4.664;2022-09-29T10:46:00;5.93;;;3.40;;
39208;SDS011;24929;51.982;4.664;2022-09-29T10:48:25;3.88;;;2.83;;
39208;SDS011;24929;51.982;4.664;2022-09-29T10:51:02;3.20;;;2.88;;
39208;SDS011;24929;51.982;4.664;2022-09-29T10:53:33;3.55;;;2.67;;
39208;SDS011;24929;51.982;4.664;2022-09-29T10:56:16;2.88;;;2.63;;
39208;SDS011;24929;51.982;4.664;2022-09-29T10:58:51;3.50;;;2.80;;
39208;SDS011;24929;51.982;4.664;2022-09-29T11:01:22;2.97;;;2.60;;
39208;SDS011;24929;51.982;4.664;2022-09-29T11:03:58;2.65;;;2.30;;
39208;SDS011;24929;51.982;4.664;2022-09-29T11:06:30;2.42;;;1.75;;
39208;SDS011;24929;51.982;4.664;2022-09-29T11:09:03;1.95;;;1.73;;
39208;SDS011;24929;51.982;4.664;2022-09-29T11:17:18;2.00;;;1.80;;
39208;SDS011;24929;51.982;4.664;2022-09-29T11:19:51;3.60;;;2.40;;
39208;SDS011;24929;51.982;4.664;2022-09-29T11:22:35;3.55;;;2.28;;
39208;SDS011;24929;51.982;4.664;2022-09-29T11:47:02;2.63;;;1.88;;
39208;SDS011;24929;51.982;4.664;2022-09-29T11:58:14;1.83;;;1.70;;
39208;SDS011;24929;51.982;4.664;2022-09-29T12:04:11;2.80;;;2.25;;
39208;SDS011;24929;51.982;4.664;2022-09-29T12:06:51;1.75;;;1.60;;
39208;SDS011;24929;51.982;4.664;2022-09-29T12:17:19;1.48;;;1.38;;
39208;SDS011;24929;51.982;4.664;2022-09-29T12:19:55;2.97;;;1.65;;
39208;SDS011;24929;51.982;4.664;2022-09-29T12:22:26;1.80;;;1.58;;
39208;SDS011;24929;51.982;4.664;2022-09-29T12:24:54;1.27;;;1.17;;
39208;SDS011;24929;51.982;4.664;2022-09-29T12:27:33;1.42;;;1.10;;
39208;SDS011;24929;51.982;4.664;2022-09-29T12:32:51;1.95;;;1.67;;
39208;SDS011;24929;51.982;4.664;2022-09-29T12:35:44;1.27;;;1.17;;
39208;SDS011;24929;51.982;4.664;2022-09-29T12:47:06;1.20;;;1.10;;
39208;SDS011;24929;51.982;4.664;2022-09-29T12:52:24;1.00;;;0.95;;
39208;SDS011;24929;51.982;4.664;2022-09-29T12:54:57;1.10;;;1.00;;
39208;SDS011;24929;51.982;4.664;2022-09-29T12:57:34;2.03;;;1.42;;
39208;SDS011;24929;51.982;4.664;2022-09-29T13:00:09;1.90;;;1.70;;
39208;SDS011;24929;51.982;4.664;2022-09-29T13:17:05;1.60;;;1.50;;
39208;SDS011;24929;51.982;4.664;2022-09-29T13:19:20;1.10;;;1.00;;
39208;SDS011;24929;51.982;4.664;2022-09-29T13:27:36;1.67;;;1.45;;
39208;SDS011;24929;51.982;4.664;2022-09-29T13:30:13;1.92;;;1.70;;
39208;SDS011;24929;51.982;4.664;2022-09-29T13:32:42;2.15;;;1.23;;
39208;SDS011;24929;51.982;4.664;2022-09-29T13:35:16;1.65;;;1.35;;
39208;SDS011;24929;51.982;4.664;2022-09-29T13:40:24;1.20;;;1.02;;
39208;SDS011;24929;51.982;4.664;2022-09-29T13:50:50;1.48;;;1.20;;
39208;SDS011;24929;51.982;4.664;2022-09-29T13:58:31;1.25;;;1.10;;
39208;SDS011;24929;51.982;4.664;2022-09-29T14:01:00;1.40;;;1.30;;
39208;SDS011;24929;51.982;4.664;2022-09-29T14:03:33;1.45;;;1.02;;
39208;SDS011;24929;51.982;4.664;2022-09-29T14:30:20;2.78;;;0.57;;
39208;SDS011;24929;51.982;4.664;2022-09-29T14:33:24;0.52;;;0.45;;
39208;SDS011;24929;51.982;4.664;2022-09-29T14:38:40;0.60;;;0.60;;
39208;SDS011;24929;51.982;4.664;2022-09-29T14:41:21;1.42;;;1.00;;
39208;SDS011;24929;51.982;4.664;2022-09-29T14:44:00;0.80;;;0.80;;
39208;SDS011;24929;51.982;4.664;2022-09-29T14:49:22;1.38;;;0.80;;
39208;SDS011;24929;51.982;4.664;2022-09-29T15:00:11;1.02;;;0.90;;
39208;SDS011;24929;51.982;4.664;2022-09-29T15:02:45;0.60;;;0.60;;
39208;SDS011;24929;51.982;4.664;2022-09-29T15:05:27;2.00;;;0.77;;
39208;SDS011;24929;51.982;4.664;2022-09-29T15:07:57;4.20;;;0.70;;
39208;SDS011;24929;51.982;4.664;2022-09-29T15:10:26;0.43;;;0.40;;
39208;SDS011;24929;51.982;4.664;2022-09-29T15:12:52;0.70;;;0.70;;
39208;SDS011;24929;51.982;4.664;2022-09-29T15:16:10;0.90;;;0.70;;
39208;SDS011;24929;51.982;4.664;2022-09-29T15:27:01;1.30;;;1.10;;
39208;SDS011;24929;51.982;4.664;2022-09-29T15:29:29;1.40;;;1.00;;
39208;SDS011;24929;51.982;4.664;2022-09-29T15:31:55;1.17;;;1.02;;
39208;SDS011;24929;51.982;4.664;2022-09-29T15:34:22;4.35;;;1.05;;
39208;SDS011;24929;51.982;4.664;2022-09-29T15:36:50;1.67;;;1.08;;
39208;SDS011;24929;51.982;4.664;2022-09-29T15:41:59;1.02;;;0.93;;
39208;SDS011;24929;51.982;4.664;2022-09-29T15:44:27;2.22;;;0.90;;
39208;SDS011;24929;51.982;4.664;2022-09-29T15:46:56;0.70;;;0.70;;
39208;SDS011;24929;51.982;4.664;2022-09-29T15:49:23;1.00;;;0.90;;
39208;SDS011;24929;51.982;4.664;2022-09-29T15:54:28;0.90;;;0.73;;
39208;SDS011;24929;51.982;4.664;2022-09-29T15:57:01;1.40;;;0.70;;
39208;SDS011;24929;51.982;4.664;2022-09-29T15:59:50;1.98;;;0.80;;
39208;SDS011;24929;51.982;4.664;2022-09-29T16:05:12;1.17;;;0.50;;
39208;SDS011;24929;51.982;4.664;2022-09-29T16:10:19;5.72;;;1.02;;
39208;SDS011;24929;51.982;4.664;2022-09-29T16:13:05;3.70;;;0.88;;
39208;SDS011;24929;51.982;4.664;2022-09-29T16:15:41;2.28;;;0.98;;
39208;SDS011;24929;51.982;4.664;2022-09-29T16:18:12;1.80;;;1.08;;
39208;SDS011;24929;51.982;4.664;2022-09-29T16:20:43;2.60;;;1.33;;
39208;SDS011;24929;51.982;4.664;2022-09-29T16:23:21;1.10;;;0.95;;
39208;SDS011;24929;51.982;4.664;2022-09-29T16:28:34;1.90;;;1.23;;
39208;SDS011;24929;51.982;4.664;2022-09-29T16:31:03;1.48;;;1.38;;
39208;SDS011;24929;51.982;4.664;2022-09-29T16:33:32;5.20;;;1.48;;
39208;SDS011;24929;51.982;4.664;2022-09-29T16:36:03;1.88;;;1.65;;
39208;SDS011;24929;51.982;4.664;2022-09-29T16:38:39;2.05;;;1.85;;
39208;SDS011;24929;51.982;4.664;2022-09-29T16:46:51;1.88;;;1.40;;
39208;SDS011;24929;51.982;4.664;2022-09-29T16:49:21;3.72;;;1.42;;
39208;SDS011;24929;51.982;4.664;2022-09-29T16:51:53;1.70;;;1.33;;
39208;SDS011;24929;51.982;4.664;2022-09-29T16:54:22;1.58;;;1.48;;
39208;SDS011;24929;51.982;4.664;2022-09-29T16:59:54;4.38;;;2.38;;
39208;SDS011;24929;51.982;4.664;2022-09-29T17:02:21;1.77;;;1.63;;
39208;SDS011;24929;51.982;4.664;2022-09-29T17:04:51;5.13;;;1.70;;
39208;SDS011;24929;51.982;4.664;2022-09-29T17:07:19;5.25;;;1.60;;
39208;SDS011;24929;51.982;4.664;2022-09-29T17:09:49;2.55;;;1.70;;
39208;SDS011;24929;51.982;4.664;2022-09-29T17:12:20;2.20;;;1.90;;
39208;SDS011;24929;51.982;4.664;2022-09-29T17:14:47;2.17;;;1.40;;
39208;SDS011;24929;51.982;4.664;2022-09-29T17:17:23;2.97;;;1.35;;
39208;SDS011;24929;51.982;4.664;2022-09-29T17:19:51;2.75;;;2.05;;
39208;SDS011;24929;51.982;4.664;2022-09-29T17:27:29;5.93;;;1.67;;
39208;SDS011;24929;51.982;4.664;2022-09-29T17:30:15;1.83;;;1.63;;
39208;SDS011;24929;51.982;4.664;2022-09-29T17:32:43;3.78;;;2.83;;
39208;SDS011;24929;51.982;4.664;2022-09-29T17:35:10;2.28;;;2.05;;
39208;SDS011;24929;51.982;4.664;2022-09-29T17:37:40;4.25;;;2.00;;
39208;SDS011;24929;51.982;4.664;2022-09-29T17:40:14;2.45;;;2.00;;
39208;SDS011;24929;51.982;4.664;2022-09-29T17:42:47;2.63;;;2.13;;
39208;SDS011;24929;51.982;4.664;2022-09-29T17:45:13;2.33;;;2.13;;
39208;SDS011;24929;51.982;4.664;2022-09-29T17:47:43;2.40;;;1.90;;
39208;SDS011;24929;51.982;4.664;2022-09-29T17:50:17;2.85;;;2.10;;
39208;SDS011;24929;51.982;4.664;2022-09-29T17:53:03;1.88;;;1.60;;
39208;SDS011;24929;51.982;4.664;2022-09-29T17:55:29;3.30;;;2.00;;
39208;SDS011;24929;51.982;4.664;2022-09-29T17:57:56;3.78;;;2.55;;
39208;SDS011;24929;51.982;4.664;2022-09-29T18:02:53;10.35;;;4.55;;
39208;SDS011;24929;51.982;4.664;2022-09-29T18:05:21;5.53;;;3.63;;
39208;SDS011;24929;51.982;4.664;2022-09-29T18:07:51;8.80;;;4.28;;
39208;SDS011;24929;51.982;4.664;2022-09-29T18:10:28;5.72;;;4.28;;
39208;SDS011;24929;51.982;4.664;2022-09-29T18:12:58;5.95;;;4.72;;
39208;SDS011;24929;51.982;4.664;2022-09-29T18:15:23;8.25;;;6.50;;
39208;SDS011;24929;51.982;4.664;2022-09-29T18:17:57;7.90;;;5.72;;
39208;SDS011;24929;51.982;4.664;2022-09-29T18:20:24;4.05;;;3.63;;
39208;SDS011;24929;51.982;4.664;2022-09-29T18:22:53;5.53;;;4.82;;
39208;SDS011;24929;51.982;4.664;2022-09-29T18:25:24;13.25;;;8.85;;
39208;SDS011;24929;51.982;4.664;2022-09-29T18:27:50;16.92;;;10.20;;
39208;SDS011;24929;51.982;4.664;2022-09-29T18:32:46;7.10;;;5.88;;
39208;SDS011;24929;51.982;4.664;2022-09-29T18:35:14;5.45;;;3.78;;
39208;SDS011;24929;51.982;4.664;2022-09-29T18:37:44;3.92;;;2.80;;
39208;SDS011;24929;51.982;4.664;2022-09-29T18:40:09;3.63;;;3.08;;
39208;SDS011;24929;51.982;4.664;2022-09-29T18:42:45;3.30;;;3.00;;
39208;SDS011;24929;51.982;4.664;2022-09-29T18:45:12;3.63;;;2.75;;
39208;SDS011;24929;51.982;4.664;2022-09-29T18:47:47;3.20;;;2.50;;
39208;SDS011;24929;51.982;4.664;2022-09-29T18:50:18;4.82;;;2.60;;
39208;SDS011;24929;51.982;4.664;2022-09-29T18:52:48;4.40;;;2.65;;
39208;SDS011;24929;51.982;4.664;2022-09-29T18:55:15;4.15;;;2.83;;
39208;SDS011;24929;51.982;4.664;2022-09-29T18:57:43;3.28;;;2.80;;
39208;SDS011;24929;51.982;4.664;2022-09-29T19:00:10;2.63;;;2.42;;
39208;SDS011;24929;51.982;4.664;2022-09-29T19:05:48;3.65;;;3.05;;
39208;SDS011;24929;51.982;4.664;2022-09-29T19:08:14;4.00;;;3.17;;
39208;SDS011;24929;51.982;4.664;2022-09-29T19:10:46;2.75;;;2.47;;
39208;SDS011;24929;51.982;4.664;2022-09-29T19:13:19;3.45;;;3.00;;
39208;SDS011;24929;51.982;4.664;2022-09-29T19:15:45;2.83;;;2.55;;
39208;SDS011;24929;51.982;4.664;2022-09-29T19:18:16;2.63;;;2.42;;
39208;SDS011;24929;51.982;4.664;2022-09-29T19:20:47;3.50;;;3.15;;
39208;SDS011;24929;51.982;4.664;2022-09-29T19:23:13;3.20;;;2.55;;
39208;SDS011;24929;51.982;4.664;2022-09-29T19:25:43;3.60;;;3.00;;
39208;SDS011;24929;51.982;4.664;2022-09-29T19:28:10;3.92;;;2.67;;